sensor_id;sensor_type;location;lat;lon;timestamp;P1;durP1;ratioP1;P2;durP2;ratioP2
69310;SDS011;56430;48.154;16.458;2024-01-30T00:02:17;18.95;;;7.18;;
69310;SDS011;56430;48.154;16.458;2024-01-30T00:04:44;15.25;;;5.90;;
69310;SDS011;56430;48.154;16.458;2024-01-30T00:07:11;17.20;;;6.47;;
69310;SDS011;56430;48.154;16.458;2024-01-30T00:09:38;15.60;;;6.72;;
69310;SDS011;56430;48.154;16.458;2024-01-30T00:12:05;15.87;;;6.27;;
69310;SDS011;56430;48.154;16.458;2024-01-30T00:14:33;18.67;;;6.75;;
69310;SDS011;56430;48.154;16.458;2024-01-30T00:17:00;17.55;;;6.35;;
69310;SDS011;56430;48.154;16.458;2024-01-30T00:19:29;15.68;;;5.90;;
69310;SDS011;56430;48.154;16.458;2024-01-30T00:21:56;17.70;;;7.07;;
69310;SDS011;56430;48.154;16.458;2024-01-30T00:24:23;18.00;;;6.13;;
69310;SDS011;56430;48.154;16.458;2024-01-30T00:26:50;15.15;;;5.78;;
69310;SDS011;56430;48.154;16.458;2024-01-30T00:29:18;14.70;;;5.60;;
69310;SDS011;56430;48.154;16.458;2024-01-30T00:31:47;14.68;;;5.75;;
69310;SDS011;56430;48.154;16.458;2024-01-30T00:34:14;17.63;;;6.05;;
69310;SDS011;56430;48.154;16.458;2024-01-30T00:36:43;18.10;;;6.70;;
69310;SDS011;56430;48.154;16.458;2024-01-30T00:39:10;15.02;;;6.25;;
69310;SDS011;56430;48.154;16.458;2024-01-30T00:41:37;15.63;;;6.25;;
69310;SDS011;56430;48.154;16.458;2024-01-30T00:44:04;17.30;;;6.25;;
69310;SDS011;56430;48.154;16.458;2024-01-30T00:46:31;20.00;;;7.30;;
69310;SDS011;56430;48.154;16.458;2024-01-30T00:48:59;15.90;;;6.07;;
69310;SDS011;56430;48.154;16.458;2024-01-30T00:51:26;13.68;;;5.88;;
69310;SDS011;56430;48.154;16.458;2024-01-30T00:53:56;17.35;;;6.53;;
69310;SDS011;56430;48.154;16.458;2024-01-30T00:56:23;19.10;;;6.15;;
69310;SDS011;56430;48.154;16.458;2024-01-30T00:58:51;16.15;;;6.20;;
69310;SDS011;56430;48.154;16.458;2024-01-30T01:01:18;13.63;;;5.83;;
69310;SDS011;56430;48.154;16.458;2024-01-30T01:03:45;17.65;;;6.22;;
69310;SDS011;56430;48.154;16.458;2024-01-30T01:06:12;19.85;;;6.60;;
69310;SDS011;56430;48.154;16.458;2024-01-30T01:08:40;17.92;;;5.47;;
69310;SDS011;56430;48.154;16.458;2024-01-30T01:11:09;22.35;;;6.28;;
69310;SDS011;56430;48.154;16.458;2024-01-30T01:13:36;17.20;;;6.13;;
69310;SDS011;56430;48.154;16.458;2024-01-30T01:16:03;18.23;;;6.50;;
69310;SDS011;56430;48.154;16.458;2024-01-30T01:18:31;16.65;;;6.25;;
69310;SDS011;56430;48.154;16.458;2024-01-30T01:20:58;17.25;;;6.47;;
69310;SDS011;56430;48.154;16.458;2024-01-30T01:23:26;17.00;;;6.15;;
69310;SDS011;56430;48.154;16.458;2024-01-30T01:25:53;15.63;;;5.73;;
69310;SDS011;56430;48.154;16.458;2024-01-30T01:28:22;14.80;;;6.05;;
69310;SDS011;56430;48.154;16.458;2024-01-30T01:30:49;15.25;;;6.13;;
69310;SDS011;56430;48.154;16.458;2024-01-30T01:33:17;21.40;;;5.65;;
69310;SDS011;56430;48.154;16.458;2024-01-30T01:35:44;16.80;;;6.55;;
69310;SDS011;56430;48.154;16.458;2024-01-30T01:38:11;15.97;;;6.37;;
69310;SDS011;56430;48.154;16.458;2024-01-30T01:40:38;17.75;;;6.18;;
69310;SDS011;56430;48.154;16.458;2024-01-30T01:43:06;15.35;;;6.20;;
69310;SDS011;56430;48.154;16.458;2024-01-30T01:45:35;13.77;;;5.82;;
69310;SDS011;56430;48.154;16.458;2024-01-30T01:48:02;17.05;;;6.25;;
69310;SDS011;56430;48.154;16.458;2024-01-30T01:50:29;11.20;;;5.17;;
69310;SDS011;56430;48.154;16.458;2024-01-30T01:52:57;16.75;;;6.22;;
69310;SDS011;56430;48.154;16.458;2024-01-30T01:55:25;18.95;;;6.65;;
69310;SDS011;56430;48.154;16.458;2024-01-30T01:57:54;18.02;;;6.47;;
69310;SDS011;56430;48.154;16.458;2024-01-30T02:00:21;18.35;;;6.45;;
69310;SDS011;56430;48.154;16.458;2024-01-30T02:02:50;18.73;;;6.70;;
69310;SDS011;56430;48.154;16.458;2024-01-30T02:05:20;17.15;;;6.28;;
69310;SDS011;56430;48.154;16.458;2024-01-30T02:07:47;14.65;;;5.70;;
69310;SDS011;56430;48.154;16.458;2024-01-30T02:10:15;10.63;;;4.95;;
69310;SDS011;56430;48.154;16.458;2024-01-30T02:12:42;12.43;;;5.63;;
69310;SDS011;56430;48.154;16.458;2024-01-30T02:15:13;15.40;;;6.10;;
69310;SDS011;56430;48.154;16.458;2024-01-30T02:17:40;12.85;;;4.97;;
69310;SDS011;56430;48.154;16.458;2024-01-30T02:20:09;12.10;;;4.80;;
69310;SDS011;56430;48.154;16.458;2024-01-30T02:22:38;15.48;;;6.32;;
69310;SDS011;56430;48.154;16.458;2024-01-30T02:25:07;17.58;;;7.13;;
69310;SDS011;56430;48.154;16.458;2024-01-30T02:27:35;15.17;;;6.47;;
69310;SDS011;56430;48.154;16.458;2024-01-30T02:30:02;19.45;;;5.63;;
69310;SDS011;56430;48.154;16.458;2024-01-30T02:32:30;15.25;;;6.07;;
69310;SDS011;56430;48.154;16.458;2024-01-30T02:34:57;14.20;;;5.32;;
69310;SDS011;56430;48.154;16.458;2024-01-30T02:37:24;14.15;;;5.65;;
69310;SDS011;56430;48.154;16.458;2024-01-30T02:39:53;16.57;;;5.80;;
69310;SDS011;56430;48.154;16.458;2024-01-30T02:42:20;17.52;;;6.03;;
69310;SDS011;56430;48.154;16.458;2024-01-30T02:44:47;12.20;;;5.75;;
69310;SDS011;56430;48.154;16.458;2024-01-30T02:47:14;16.45;;;6.28;;
69310;SDS011;56430;48.154;16.458;2024-01-30T02:49:41;16.25;;;6.18;;
69310;SDS011;56430;48.154;16.458;2024-01-30T02:52:08;17.03;;;6.53;;
69310;SDS011;56430;48.154;16.458;2024-01-30T02:54:36;19.17;;;6.30;;
69310;SDS011;56430;48.154;16.458;2024-01-30T02:57:04;18.17;;;7.03;;
69310;SDS011;56430;48.154;16.458;2024-01-30T02:59:31;16.40;;;6.60;;
69310;SDS011;56430;48.154;16.458;2024-01-30T03:02:01;17.17;;;6.45;;
69310;SDS011;56430;48.154;16.458;2024-01-30T03:04:28;15.33;;;5.63;;
69310;SDS011;56430;48.154;16.458;2024-01-30T03:06:55;18.33;;;6.32;;
69310;SDS011;56430;48.154;16.458;2024-01-30T03:09:23;13.55;;;5.85;;
69310;SDS011;56430;48.154;16.458;2024-01-30T03:11:50;13.75;;;6.15;;
69310;SDS011;56430;48.154;16.458;2024-01-30T03:14:18;17.27;;;6.47;;
69310;SDS011;56430;48.154;16.458;2024-01-30T03:16:46;16.90;;;6.53;;
69310;SDS011;56430;48.154;16.458;2024-01-30T03:19:13;15.18;;;5.28;;
69310;SDS011;56430;48.154;16.458;2024-01-30T03:21:40;17.40;;;6.20;;
69310;SDS011;56430;48.154;16.458;2024-01-30T03:24:07;18.08;;;6.82;;
69310;SDS011;56430;48.154;16.458;2024-01-30T03:26:34;14.48;;;5.85;;
69310;SDS011;56430;48.154;16.458;2024-01-30T03:29:01;14.53;;;6.03;;
69310;SDS011;56430;48.154;16.458;2024-01-30T03:31:30;17.63;;;6.15;;
69310;SDS011;56430;48.154;16.458;2024-01-30T03:33:57;14.25;;;6.07;;
69310;SDS011;56430;48.154;16.458;2024-01-30T03:36:24;15.35;;;6.38;;
69310;SDS011;56430;48.154;16.458;2024-01-30T03:38:51;13.10;;;5.70;;
69310;SDS011;56430;48.154;16.458;2024-01-30T03:41:19;21.13;;;7.07;;
69310;SDS011;56430;48.154;16.458;2024-01-30T03:43:46;20.63;;;7.00;;
69310;SDS011;56430;48.154;16.458;2024-01-30T03:46:13;17.33;;;6.65;;
69310;SDS011;56430;48.154;16.458;2024-01-30T03:48:42;19.52;;;8.40;;
69310;SDS011;56430;48.154;16.458;2024-01-30T03:51:09;12.57;;;4.70;;
69310;SDS011;56430;48.154;16.458;2024-01-30T03:53:40;20.70;;;7.33;;
69310;SDS011;56430;48.154;16.458;2024-01-30T03:56:07;25.75;;;8.25;;
69310;SDS011;56430;48.154;16.458;2024-01-30T03:58:34;22.63;;;8.00;;
69310;SDS011;56430;48.154;16.458;2024-01-30T04:01:01;20.90;;;7.10;;
69310;SDS011;56430;48.154;16.458;2024-01-30T04:03:29;24.05;;;7.60;;
69310;SDS011;56430;48.154;16.458;2024-01-30T04:05:57;19.23;;;6.93;;
69310;SDS011;56430;48.154;16.458;2024-01-30T04:08:25;17.05;;;6.85;;
69310;SDS011;56430;48.154;16.458;2024-01-30T04:10:52;14.45;;;5.30;;
69310;SDS011;56430;48.154;16.458;2024-01-30T04:13:19;14.68;;;5.68;;
69310;SDS011;56430;48.154;16.458;2024-01-30T04:15:46;17.95;;;7.10;;
69310;SDS011;56430;48.154;16.458;2024-01-30T04:18:13;19.20;;;8.57;;
69310;SDS011;56430;48.154;16.458;2024-01-30T04:20:40;13.50;;;5.68;;
69310;SDS011;56430;48.154;16.458;2024-01-30T04:23:09;20.55;;;7.97;;
69310;SDS011;56430;48.154;16.458;2024-01-30T04:25:36;18.27;;;7.45;;
69310;SDS011;56430;48.154;16.458;2024-01-30T04:28:04;17.50;;;6.88;;
69310;SDS011;56430;48.154;16.458;2024-01-30T04:30:31;20.17;;;6.83;;
69310;SDS011;56430;48.154;16.458;2024-01-30T04:32:58;17.25;;;5.80;;
69310;SDS011;56430;48.154;16.458;2024-01-30T04:35:25;21.90;;;8.13;;
69310;SDS011;56430;48.154;16.458;2024-01-30T04:37:52;20.98;;;7.03;;
69310;SDS011;56430;48.154;16.458;2024-01-30T04:40:21;16.70;;;7.00;;
69310;SDS011;56430;48.154;16.458;2024-01-30T04:42:48;18.17;;;7.50;;
69310;SDS011;56430;48.154;16.458;2024-01-30T04:45:15;21.67;;;7.97;;
69310;SDS011;56430;48.154;16.458;2024-01-30T04:47:43;21.42;;;6.82;;
69310;SDS011;56430;48.154;16.458;2024-01-30T04:50:10;22.45;;;7.88;;
69310;SDS011;56430;48.154;16.458;2024-01-30T04:52:37;17.35;;;6.10;;
69310;SDS011;56430;48.154;16.458;2024-01-30T04:55:04;16.10;;;5.53;;
69310;SDS011;56430;48.154;16.458;2024-01-30T04:57:33;19.45;;;7.35;;
69310;SDS011;56430;48.154;16.458;2024-01-30T05:00:01;16.95;;;7.10;;
69310;SDS011;56430;48.154;16.458;2024-01-30T05:02:28;21.17;;;8.60;;
69310;SDS011;56430;48.154;16.458;2024-01-30T05:04:55;21.58;;;7.80;;
69310;SDS011;56430;48.154;16.458;2024-01-30T05:07:24;20.23;;;7.57;;
69310;SDS011;56430;48.154;16.458;2024-01-30T05:09:51;16.60;;;6.75;;
69310;SDS011;56430;48.154;16.458;2024-01-30T05:12:19;21.63;;;7.10;;
69310;SDS011;56430;48.154;16.458;2024-01-30T05:14:48;19.63;;;7.18;;
69310;SDS011;56430;48.154;16.458;2024-01-30T05:17:15;19.95;;;7.70;;
69310;SDS011;56430;48.154;16.458;2024-01-30T05:19:43;16.90;;;7.10;;
69310;SDS011;56430;48.154;16.458;2024-01-30T05:22:10;19.80;;;7.28;;
69310;SDS011;56430;48.154;16.458;2024-01-30T05:24:41;19.90;;;7.07;;
69310;SDS011;56430;48.154;16.458;2024-01-30T05:27:08;16.77;;;5.82;;
69310;SDS011;56430;48.154;16.458;2024-01-30T05:29:35;20.42;;;7.00;;
69310;SDS011;56430;48.154;16.458;2024-01-30T05:32:04;21.30;;;7.20;;
69310;SDS011;56430;48.154;16.458;2024-01-30T05:34:32;17.63;;;6.15;;
69310;SDS011;56430;48.154;16.458;2024-01-30T05:36:59;18.83;;;7.30;;
69310;SDS011;56430;48.154;16.458;2024-01-30T05:39:26;19.60;;;7.43;;
69310;SDS011;56430;48.154;16.458;2024-01-30T05:41:53;20.23;;;7.50;;
69310;SDS011;56430;48.154;16.458;2024-01-30T05:44:20;17.43;;;7.10;;
69310;SDS011;56430;48.154;16.458;2024-01-30T05:46:47;19.60;;;6.75;;
69310;SDS011;56430;48.154;16.458;2024-01-30T05:49:16;21.42;;;7.15;;
69310;SDS011;56430;48.154;16.458;2024-01-30T05:51:43;15.63;;;6.63;;
69310;SDS011;56430;48.154;16.458;2024-01-30T05:54:11;17.90;;;6.80;;
69310;SDS011;56430;48.154;16.458;2024-01-30T05:56:38;17.63;;;6.00;;
69310;SDS011;56430;48.154;16.458;2024-01-30T05:59:05;17.58;;;7.25;;
69310;SDS011;56430;48.154;16.458;2024-01-30T06:01:32;22.50;;;7.18;;
69310;SDS011;56430;48.154;16.458;2024-01-30T06:04:00;19.20;;;7.32;;
69310;SDS011;56430;48.154;16.458;2024-01-30T06:06:29;26.60;;;9.43;;
69310;SDS011;56430;48.154;16.458;2024-01-30T06:08:56;17.40;;;6.30;;
69310;SDS011;56430;48.154;16.458;2024-01-30T06:11:23;15.52;;;6.40;;
69310;SDS011;56430;48.154;16.458;2024-01-30T06:13:51;22.00;;;7.38;;
69310;SDS011;56430;48.154;16.458;2024-01-30T06:16:18;17.65;;;6.75;;
69310;SDS011;56430;48.154;16.458;2024-01-30T06:18:46;17.35;;;6.68;;
69310;SDS011;56430;48.154;16.458;2024-01-30T06:21:13;15.50;;;6.50;;
69310;SDS011;56430;48.154;16.458;2024-01-30T06:23:42;22.55;;;7.22;;
69310;SDS011;56430;48.154;16.458;2024-01-30T06:26:09;14.68;;;6.10;;
69310;SDS011;56430;48.154;16.458;2024-01-30T06:28:37;17.92;;;7.80;;
69310;SDS011;56430;48.154;16.458;2024-01-30T06:31:04;21.17;;;7.90;;
69310;SDS011;56430;48.154;16.458;2024-01-30T06:33:31;18.67;;;6.27;;
69310;SDS011;56430;48.154;16.458;2024-01-30T06:35:58;19.08;;;7.13;;
69310;SDS011;56430;48.154;16.458;2024-01-30T06:38:25;18.35;;;6.28;;
69310;SDS011;56430;48.154;16.458;2024-01-30T06:40:54;19.15;;;6.72;;
69310;SDS011;56430;48.154;16.458;2024-01-30T06:43:21;21.95;;;8.05;;
69310;SDS011;56430;48.154;16.458;2024-01-30T06:45:52;19.00;;;7.33;;
69310;SDS011;56430;48.154;16.458;2024-01-30T06:48:19;17.73;;;6.68;;
69310;SDS011;56430;48.154;16.458;2024-01-30T06:50:46;17.65;;;6.03;;
69310;SDS011;56430;48.154;16.458;2024-01-30T06:53:14;18.63;;;6.05;;
69310;SDS011;56430;48.154;16.458;2024-01-30T06:55:42;18.63;;;6.35;;
69310;SDS011;56430;48.154;16.458;2024-01-30T06:58:10;15.80;;;5.40;;
69310;SDS011;56430;48.154;16.458;2024-01-30T07:00:37;22.02;;;4.07;;
69310;SDS011;56430;48.154;16.458;2024-01-30T07:03:05;15.10;;;6.25;;
69310;SDS011;56430;48.154;16.458;2024-01-30T07:05:32;19.92;;;7.57;;
69310;SDS011;56430;48.154;16.458;2024-01-30T07:07:59;17.23;;;6.07;;
69310;SDS011;56430;48.154;16.458;2024-01-30T07:10:26;17.27;;;5.70;;
69310;SDS011;56430;48.154;16.458;2024-01-30T07:12:53;21.85;;;8.30;;
69310;SDS011;56430;48.154;16.458;2024-01-30T07:15:22;18.25;;;6.60;;
69310;SDS011;56430;48.154;16.458;2024-01-30T07:17:51;19.33;;;7.60;;
69310;SDS011;56430;48.154;16.458;2024-01-30T07:20:19;18.75;;;6.72;;
69310;SDS011;56430;48.154;16.458;2024-01-30T07:22:46;16.13;;;5.47;;
69310;SDS011;56430;48.154;16.458;2024-01-30T07:25:13;18.45;;;5.28;;
69310;SDS011;56430;48.154;16.458;2024-01-30T07:27:41;16.98;;;5.72;;
69310;SDS011;56430;48.154;16.458;2024-01-30T07:30:08;21.20;;;6.55;;
69310;SDS011;56430;48.154;16.458;2024-01-30T07:32:37;17.65;;;6.95;;
69310;SDS011;56430;48.154;16.458;2024-01-30T07:35:04;18.63;;;6.97;;
69310;SDS011;56430;48.154;16.458;2024-01-30T07:37:31;21.75;;;7.10;;
69310;SDS011;56430;48.154;16.458;2024-01-30T07:39:58;16.92;;;5.78;;
69310;SDS011;56430;48.154;16.458;2024-01-30T07:42:26;18.42;;;6.80;;
69310;SDS011;56430;48.154;16.458;2024-01-30T07:44:53;15.57;;;6.68;;
69310;SDS011;56430;48.154;16.458;2024-01-30T07:47:20;17.40;;;7.00;;
69310;SDS011;56430;48.154;16.458;2024-01-30T07:49:49;17.25;;;6.68;;
69310;SDS011;56430;48.154;16.458;2024-01-30T07:52:16;16.85;;;6.32;;
69310;SDS011;56430;48.154;16.458;2024-01-30T07:58:06;13.18;;;6.28;;
69310;SDS011;56430;48.154;16.458;2024-01-30T08:00:33;17.93;;;7.03;;
69310;SDS011;56430;48.154;16.458;2024-01-30T08:03:00;18.45;;;7.40;;
69310;SDS011;56430;48.154;16.458;2024-01-30T08:05:28;17.38;;;7.00;;
69310;SDS011;56430;48.154;16.458;2024-01-30T08:07:56;16.05;;;6.55;;
69310;SDS011;56430;48.154;16.458;2024-01-30T08:10:23;14.57;;;6.82;;
69310;SDS011;56430;48.154;16.458;2024-01-30T08:12:50;14.33;;;6.30;;
69310;SDS011;56430;48.154;16.458;2024-01-30T08:15:17;14.32;;;6.53;;
69310;SDS011;56430;48.154;16.458;2024-01-30T08:17:44;14.45;;;6.60;;
69310;SDS011;56430;48.154;16.458;2024-01-30T08:20:11;15.25;;;6.50;;
69310;SDS011;56430;48.154;16.458;2024-01-30T08:22:40;15.10;;;6.60;;
69310;SDS011;56430;48.154;16.458;2024-01-30T08:25:08;13.80;;;6.63;;
69310;SDS011;56430;48.154;16.458;2024-01-30T08:27:36;11.85;;;6.47;;
69310;SDS011;56430;48.154;16.458;2024-01-30T08:30:04;14.27;;;6.43;;
69310;SDS011;56430;48.154;16.458;2024-01-30T08:32:33;15.10;;;7.60;;
69310;SDS011;56430;48.154;16.458;2024-01-30T08:35:00;13.40;;;7.03;;
69310;SDS011;56430;48.154;16.458;2024-01-30T08:37:29;14.30;;;7.57;;
69310;SDS011;56430;48.154;16.458;2024-01-30T08:39:57;11.82;;;6.80;;
69310;SDS011;56430;48.154;16.458;2024-01-30T08:42:25;14.95;;;6.13;;
69310;SDS011;56430;48.154;16.458;2024-01-30T08:44:52;15.40;;;7.35;;
69310;SDS011;56430;48.154;16.458;2024-01-30T08:47:19;13.98;;;7.20;;
69310;SDS011;56430;48.154;16.458;2024-01-30T08:49:47;13.20;;;7.00;;
69310;SDS011;56430;48.154;16.458;2024-01-30T08:52:14;16.38;;;7.25;;
69310;SDS011;56430;48.154;16.458;2024-01-30T08:54:41;14.15;;;7.07;;
69310;SDS011;56430;48.154;16.458;2024-01-30T08:57:12;12.55;;;7.15;;
69310;SDS011;56430;48.154;16.458;2024-01-30T08:59:39;12.65;;;7.53;;
69310;SDS011;56430;48.154;16.458;2024-01-30T09:02:07;14.90;;;7.03;;
69310;SDS011;56430;48.154;16.458;2024-01-30T09:04:35;12.07;;;7.05;;
69310;SDS011;56430;48.154;16.458;2024-01-30T09:07:02;12.93;;;6.95;;
69310;SDS011;56430;48.154;16.458;2024-01-30T09:09:31;13.48;;;7.35;;
69310;SDS011;56430;48.154;16.458;2024-01-30T09:11:58;12.50;;;6.82;;
69310;SDS011;56430;48.154;16.458;2024-01-30T09:14:31;14.23;;;6.80;;
69310;SDS011;56430;48.154;16.458;2024-01-30T09:16:59;13.95;;;6.95;;
69310;SDS011;56430;48.154;16.458;2024-01-30T09:19:26;13.80;;;7.18;;
69310;SDS011;56430;48.154;16.458;2024-01-30T09:21:53;14.32;;;7.85;;
69310;SDS011;56430;48.154;16.458;2024-01-30T09:24:20;13.80;;;7.15;;
69310;SDS011;56430;48.154;16.458;2024-01-30T09:26:48;13.23;;;7.53;;
69310;SDS011;56430;48.154;16.458;2024-01-30T09:29:17;14.98;;;7.43;;
69310;SDS011;56430;48.154;16.458;2024-01-30T09:31:46;12.25;;;7.22;;
69310;SDS011;56430;48.154;16.458;2024-01-30T09:34:13;13.10;;;6.90;;
69310;SDS011;56430;48.154;16.458;2024-01-30T09:36:40;14.35;;;7.38;;
69310;SDS011;56430;48.154;16.458;2024-01-30T09:39:08;14.30;;;7.37;;
69310;SDS011;56430;48.154;16.458;2024-01-30T09:41:36;15.82;;;6.90;;
69310;SDS011;56430;48.154;16.458;2024-01-30T09:44:09;13.65;;;6.82;;
69310;SDS011;56430;48.154;16.458;2024-01-30T09:46:37;14.25;;;6.28;;
69310;SDS011;56430;48.154;16.458;2024-01-30T09:49:06;12.73;;;6.78;;
69310;SDS011;56430;48.154;16.458;2024-01-30T09:51:34;16.97;;;7.03;;
69310;SDS011;56430;48.154;16.458;2024-01-30T09:54:01;11.63;;;6.47;;
69310;SDS011;56430;48.154;16.458;2024-01-30T09:56:29;14.10;;;7.35;;
69310;SDS011;56430;48.154;16.458;2024-01-30T09:58:56;13.93;;;6.90;;
69310;SDS011;56430;48.154;16.458;2024-01-30T10:01:23;13.52;;;6.93;;
69310;SDS011;56430;48.154;16.458;2024-01-30T10:03:51;18.57;;;7.30;;
69310;SDS011;56430;48.154;16.458;2024-01-30T10:06:20;14.25;;;6.82;;
69310;SDS011;56430;48.154;16.458;2024-01-30T10:08:48;14.45;;;6.80;;
69310;SDS011;56430;48.154;16.458;2024-01-30T10:11:15;13.65;;;7.00;;
69310;SDS011;56430;48.154;16.458;2024-01-30T10:13:42;15.55;;;6.22;;
69310;SDS011;56430;48.154;16.458;2024-01-30T10:16:10;12.60;;;6.87;;
69310;SDS011;56430;48.154;16.458;2024-01-30T10:18:37;13.00;;;6.60;;
69310;SDS011;56430;48.154;16.458;2024-01-30T10:21:04;13.18;;;6.47;;
69310;SDS011;56430;48.154;16.458;2024-01-30T10:23:33;12.82;;;6.85;;
69310;SDS011;56430;48.154;16.458;2024-01-30T10:26:00;11.15;;;6.97;;
69310;SDS011;56430;48.154;16.458;2024-01-30T10:28:27;16.13;;;7.43;;
69310;SDS011;56430;48.154;16.458;2024-01-30T10:30:59;14.07;;;6.75;;
69310;SDS011;56430;48.154;16.458;2024-01-30T10:33:26;13.70;;;6.45;;
69310;SDS011;56430;48.154;16.458;2024-01-30T10:35:54;16.23;;;6.20;;
69310;SDS011;56430;48.154;16.458;2024-01-30T10:38:27;15.93;;;7.03;;
69310;SDS011;56430;48.154;16.458;2024-01-30T10:40:58;11.47;;;6.70;;
69310;SDS011;56430;48.154;16.458;2024-01-30T10:43:28;14.05;;;6.65;;
69310;SDS011;56430;48.154;16.458;2024-01-30T10:45:57;13.48;;;6.00;;
69310;SDS011;56430;48.154;16.458;2024-01-30T10:48:31;11.15;;;5.80;;
69310;SDS011;56430;48.154;16.458;2024-01-30T10:51:00;14.13;;;6.22;;
69310;SDS011;56430;48.154;16.458;2024-01-30T10:53:29;11.80;;;5.77;;
69310;SDS011;56430;48.154;16.458;2024-01-30T10:55:59;13.93;;;6.65;;
69310;SDS011;56430;48.154;16.458;2024-01-30T10:58:27;12.70;;;6.10;;
69310;SDS011;56430;48.154;16.458;2024-01-30T11:00:54;15.02;;;6.35;;
69310;SDS011;56430;48.154;16.458;2024-01-30T11:03:21;13.38;;;5.97;;
69310;SDS011;56430;48.154;16.458;2024-01-30T11:05:49;13.20;;;6.23;;
69310;SDS011;56430;48.154;16.458;2024-01-30T11:08:22;13.73;;;5.63;;
69310;SDS011;56430;48.154;16.458;2024-01-30T11:10:55;9.38;;;5.65;;
69310;SDS011;56430;48.154;16.458;2024-01-30T11:13:24;11.02;;;6.10;;
69310;SDS011;56430;48.154;16.458;2024-01-30T11:15:53;12.40;;;6.40;;
69310;SDS011;56430;48.154;16.458;2024-01-30T11:18:23;13.27;;;5.43;;
69310;SDS011;56430;48.154;16.458;2024-01-30T11:20:51;11.50;;;5.80;;
69310;SDS011;56430;48.154;16.458;2024-01-30T11:23:21;10.35;;;5.45;;
69310;SDS011;56430;48.154;16.458;2024-01-30T11:25:49;11.65;;;5.75;;
69310;SDS011;56430;48.154;16.458;2024-01-30T11:28:16;12.45;;;5.13;;
69310;SDS011;56430;48.154;16.458;2024-01-30T11:30:45;11.27;;;5.30;;
69310;SDS011;56430;48.154;16.458;2024-01-30T11:33:13;12.90;;;5.53;;
69310;SDS011;56430;48.154;16.458;2024-01-30T11:35:41;10.48;;;5.97;;
69310;SDS011;56430;48.154;16.458;2024-01-30T11:38:09;13.35;;;6.00;;
69310;SDS011;56430;48.154;16.458;2024-01-30T11:40:38;9.93;;;5.43;;
69310;SDS011;56430;48.154;16.458;2024-01-30T11:43:06;13.77;;;5.50;;
69310;SDS011;56430;48.154;16.458;2024-01-30T11:45:34;10.88;;;5.25;;
69310;SDS011;56430;48.154;16.458;2024-01-30T11:48:04;13.85;;;6.30;;
69310;SDS011;56430;48.154;16.458;2024-01-30T11:50:33;12.60;;;5.38;;
69310;SDS011;56430;48.154;16.458;2024-01-30T11:53:01;10.85;;;5.15;;
69310;SDS011;56430;48.154;16.458;2024-01-30T11:55:28;12.57;;;5.83;;
69310;SDS011;56430;48.154;16.458;2024-01-30T11:57:56;11.07;;;5.40;;
69310;SDS011;56430;48.154;16.458;2024-01-30T12:00:24;13.88;;;6.10;;
69310;SDS011;56430;48.154;16.458;2024-01-30T12:02:51;10.02;;;5.47;;
69310;SDS011;56430;48.154;16.458;2024-01-30T12:05:22;11.07;;;5.93;;
69310;SDS011;56430;48.154;16.458;2024-01-30T12:07:50;11.07;;;5.43;;
69310;SDS011;56430;48.154;16.458;2024-01-30T12:10:17;14.10;;;5.57;;
69310;SDS011;56430;48.154;16.458;2024-01-30T12:12:45;12.90;;;5.22;;
69310;SDS011;56430;48.154;16.458;2024-01-30T12:15:13;10.40;;;4.90;;
69310;SDS011;56430;48.154;16.458;2024-01-30T12:17:41;10.77;;;5.47;;
69310;SDS011;56430;48.154;16.458;2024-01-30T12:20:09;16.00;;;5.50;;
69310;SDS011;56430;48.154;16.458;2024-01-30T12:22:39;12.75;;;5.70;;
69310;SDS011;56430;48.154;16.458;2024-01-30T12:25:07;18.75;;;6.03;;
69310;SDS011;56430;48.154;16.458;2024-01-30T12:27:35;15.05;;;4.80;;
69310;SDS011;56430;48.154;16.458;2024-01-30T12:30:04;12.75;;;5.10;;
69310;SDS011;56430;48.154;16.458;2024-01-30T12:32:34;13.17;;;5.30;;
69310;SDS011;56430;48.154;16.458;2024-01-30T12:35:01;12.25;;;4.95;;
69310;SDS011;56430;48.154;16.458;2024-01-30T12:37:29;10.13;;;5.00;;
69310;SDS011;56430;48.154;16.458;2024-01-30T12:39:57;14.43;;;5.75;;
69310;SDS011;56430;48.154;16.458;2024-01-30T12:42:25;11.85;;;4.22;;
69310;SDS011;56430;48.154;16.458;2024-01-30T12:44:53;11.10;;;4.60;;
69310;SDS011;56430;48.154;16.458;2024-01-30T12:47:21;13.43;;;5.13;;
69310;SDS011;56430;48.154;16.458;2024-01-30T12:49:48;10.48;;;4.70;;
69310;SDS011;56430;48.154;16.458;2024-01-30T12:52:19;14.48;;;4.97;;
69310;SDS011;56430;48.154;16.458;2024-01-30T12:54:47;14.13;;;4.93;;
69310;SDS011;56430;48.154;16.458;2024-01-30T12:57:15;14.00;;;4.90;;
69310;SDS011;56430;48.154;16.458;2024-01-30T12:59:43;10.10;;;3.85;;
69310;SDS011;56430;48.154;16.458;2024-01-30T13:02:11;13.05;;;4.65;;
69310;SDS011;56430;48.154;16.458;2024-01-30T13:04:39;12.63;;;4.93;;
69310;SDS011;56430;48.154;16.458;2024-01-30T13:07:06;10.45;;;4.80;;
69310;SDS011;56430;48.154;16.458;2024-01-30T13:09:33;14.27;;;5.30;;
69310;SDS011;56430;48.154;16.458;2024-01-30T13:12:00;12.90;;;4.43;;
69310;SDS011;56430;48.154;16.458;2024-01-30T13:14:29;13.43;;;4.85;;
69310;SDS011;56430;48.154;16.458;2024-01-30T13:16:56;10.98;;;4.40;;
69310;SDS011;56430;48.154;16.458;2024-01-30T13:19:23;13.27;;;5.32;;
69310;SDS011;56430;48.154;16.458;2024-01-30T13:21:50;12.40;;;4.30;;
69310;SDS011;56430;48.154;16.458;2024-01-30T13:24:17;11.15;;;4.32;;
69310;SDS011;56430;48.154;16.458;2024-01-30T13:26:46;14.75;;;4.88;;
69310;SDS011;56430;48.154;16.458;2024-01-30T13:29:14;10.77;;;4.20;;
69310;SDS011;56430;48.154;16.458;2024-01-30T13:31:43;11.65;;;4.32;;
69310;SDS011;56430;48.154;16.458;2024-01-30T13:34:12;10.67;;;4.37;;
69310;SDS011;56430;48.154;16.458;2024-01-30T13:36:40;12.05;;;4.30;;
69310;SDS011;56430;48.154;16.458;2024-01-30T13:39:07;12.57;;;5.03;;
69310;SDS011;56430;48.154;16.458;2024-01-30T13:41:36;14.00;;;5.80;;
69310;SDS011;56430;48.154;16.458;2024-01-30T13:44:04;13.32;;;4.53;;
69310;SDS011;56430;48.154;16.458;2024-01-30T13:46:31;14.30;;;4.67;;
69310;SDS011;56430;48.154;16.458;2024-01-30T13:48:59;10.32;;;4.63;;
69310;SDS011;56430;48.154;16.458;2024-01-30T13:51:29;15.10;;;4.60;;
69310;SDS011;56430;48.154;16.458;2024-01-30T13:53:56;11.70;;;4.10;;
69310;SDS011;56430;48.154;16.458;2024-01-30T13:56:24;10.20;;;4.18;;
69310;SDS011;56430;48.154;16.458;2024-01-30T13:58:52;10.40;;;4.00;;
69310;SDS011;56430;48.154;16.458;2024-01-30T14:01:21;10.43;;;4.53;;
69310;SDS011;56430;48.154;16.458;2024-01-30T14:03:48;14.18;;;4.95;;
69310;SDS011;56430;48.154;16.458;2024-01-30T14:06:17;11.05;;;5.40;;
69310;SDS011;56430;48.154;16.458;2024-01-30T14:08:44;13.55;;;3.85;;
69310;SDS011;56430;48.154;16.458;2024-01-30T14:11:11;9.63;;;4.73;;
69310;SDS011;56430;48.154;16.458;2024-01-30T14:13:38;10.73;;;4.43;;
69310;SDS011;56430;48.154;16.458;2024-01-30T14:16:05;12.13;;;5.05;;
69310;SDS011;56430;48.154;16.458;2024-01-30T14:18:33;11.60;;;4.70;;
69310;SDS011;56430;48.154;16.458;2024-01-30T14:21:00;12.77;;;4.53;;
69310;SDS011;56430;48.154;16.458;2024-01-30T14:23:31;12.00;;;4.30;;
69310;SDS011;56430;48.154;16.458;2024-01-30T14:25:58;10.77;;;4.78;;
69310;SDS011;56430;48.154;16.458;2024-01-30T14:28:25;15.45;;;5.13;;